createdAt,value
2018-01-29T00:20:33.832Z,2.50
2018-01-29T00:42:15.614Z,2.10
2018-01-29T00:47:44.135Z,2.10
2018-01-29T00:52:48.616Z,1.87
2018-01-29T00:57:56.803Z,2.12
2018-01-29T01:02:59.744Z,2.30
2018-01-29T01:08:02.538Z,2.00
2018-01-29T01:13:06.467Z,2.00
2018-01-29T01:18:09.543Z,2.00
2018-01-29T01:23:12.441Z,3.20
2018-01-29T01:28:16.774Z,2.00
2018-01-29T01:33:20.429Z,2.00
2018-01-29T01:38:23.516Z,1.90
2018-01-29T01:43:26.387Z,1.80
2018-01-29T02:05:18.416Z,2.10
2018-01-29T02:27:31.772Z,1.62
2018-01-29T02:38:14.195Z,2.00
2018-01-29T02:43:17.626Z,1.50
2018-01-29T02:48:21.410Z,2.20
2018-01-29T02:53:24.403Z,1.70
2018-01-29T02:58:27.856Z,1.80
2018-01-29T03:03:31.560Z,2.00
2018-01-29T03:08:34.738Z,1.50
2018-01-29T03:13:37.703Z,1.50
2018-01-29T03:18:41.568Z,1.40
2018-01-29T03:23:46.987Z,2.20
2018-01-29T03:28:49.865Z,1.50
2018-01-29T03:33:53.725Z,1.60
2018-01-29T03:38:57.260Z,1.50
2018-01-29T03:44:00.075Z,1.40
2018-01-29T03:49:02.905Z,1.33
2018-01-29T03:54:06.306Z,1.30
2018-01-29T03:59:09.386Z,1.40
2018-01-29T04:04:12.345Z,1.60
2018-01-29T04:09:15.247Z,1.30
2018-01-29T04:14:18.008Z,1.30
2018-01-29T04:19:20.869Z,1.55
2018-01-29T04:24:23.720Z,1.60
2018-01-29T04:29:26.532Z,1.40
2018-01-29T04:34:30.068Z,1.40
2018-01-29T04:39:33.257Z,1.40
2018-01-29T04:44:36.177Z,1.50
2018-01-29T04:49:39.257Z,1.80
2018-01-29T04:54:42.047Z,1.30
2018-01-29T04:59:44.926Z,1.60
2018-01-29T05:04:47.702Z,2.65
2018-01-29T05:09:50.515Z,1.60
2018-01-29T05:14:53.301Z,1.80
2018-01-29T05:19:56.171Z,2.10
2018-01-29T05:24:59.029Z,1.92
2018-01-29T05:30:01.843Z,1.83
2018-01-29T05:35:08.201Z,2.00
2018-01-29T05:40:11.009Z,1.90
2018-01-29T05:45:13.852Z,2.10
2018-01-29T05:50:16.609Z,3.20
2018-01-29T05:55:22.018Z,2.20
2018-01-29T06:00:25.595Z,2.50
2018-01-29T06:05:28.419Z,2.70
2018-01-29T06:10:31.230Z,2.53
2018-01-29T06:15:34.093Z,2.70
2018-01-29T06:20:36.892Z,2.95
2018-01-29T06:25:39.660Z,2.58
2018-01-29T06:30:42.460Z,1.80
2018-01-29T06:35:45.325Z,1.90
2018-01-29T06:40:48.160Z,2.40
2018-01-29T06:45:51.116Z,1.90
2018-01-29T06:50:53.913Z,1.90
2018-01-29T06:55:56.778Z,1.98
2018-01-29T07:00:59.584Z,2.10
2018-01-29T07:06:02.393Z,2.33
2018-01-29T07:11:05.242Z,2.10
2018-01-29T07:16:08.853Z,2.53
2018-01-29T07:21:13.915Z,2.78
2018-01-29T07:26:17.857Z,3.05
2018-01-29T07:31:21.216Z,2.90
2018-01-29T07:36:24.547Z,4.15
2018-01-29T07:41:28.123Z,2.83
2018-01-29T07:46:30.916Z,3.20
2018-01-29T07:51:33.714Z,3.30
2018-01-29T07:56:36.557Z,3.30
2018-01-29T08:01:39.407Z,3.40
2018-01-29T08:06:42.262Z,3.10
2018-01-29T08:11:45.885Z,2.80
2018-01-29T08:16:49.488Z,3.08
2018-01-29T08:21:52.387Z,2.70
2018-01-29T08:26:55.494Z,4.00
2018-01-29T08:31:58.363Z,3.00
2018-01-29T08:53:55.261Z,3.37
2018-01-29T09:10:32.418Z,3.17
2018-01-29T09:16:04.405Z,3.85
2018-01-29T09:21:08.373Z,3.80
2018-01-29T09:26:12.086Z,2.90
2018-01-29T09:31:14.879Z,3.30
2018-01-29T09:36:17.677Z,4.30
2018-01-29T09:41:20.487Z,4.30
2018-01-29T09:46:23.290Z,3.67
2018-01-29T09:51:26.905Z,5.18
2018-01-29T09:56:29.701Z,4.30
2018-01-29T10:01:33.274Z,4.18
2018-01-29T10:06:39.490Z,4.30
2018-01-29T10:11:42.284Z,4.35
2018-01-29T10:16:45.082Z,4.62
2018-01-29T10:21:47.877Z,3.60
2018-01-29T10:26:51.707Z,4.10
2018-01-29T10:31:57.473Z,3.75
2018-01-29T10:37:03.246Z,4.28
2018-01-29T10:42:06.031Z,3.10
2018-01-29T10:47:08.837Z,2.70
2018-01-29T10:52:11.641Z,2.97
2018-01-29T10:57:14.411Z,3.95
2018-01-29T11:02:17.306Z,2.62
2018-01-29T11:07:20.136Z,3.10
2018-01-29T11:12:23.016Z,2.62
2018-01-29T11:17:25.956Z,3.50
2018-01-29T11:22:28.785Z,3.47
2018-01-29T11:27:32.221Z,3.20
2018-01-29T11:32:35.774Z,2.95
2018-01-29T11:37:38.687Z,1.83
2018-01-29T11:42:42.247Z,3.07
2018-01-29T11:47:45.101Z,4.30
2018-01-29T11:52:48.726Z,1.80
2018-01-29T11:57:52.294Z,1.80
2018-01-29T12:02:55.121Z,2.80
2018-01-29T12:07:58.634Z,1.90
2018-01-29T12:13:01.445Z,4.45
2018-01-29T12:18:04.332Z,4.10
2018-01-29T12:23:12.212Z,2.77
2018-01-29T12:28:18.582Z,6.10
2018-01-29T12:33:21.443Z,2.70
2018-01-29T12:38:24.233Z,2.30
2018-01-29T12:43:29.999Z,2.10
2018-01-29T12:48:39.360Z,2.65
2018-01-29T12:53:57.832Z,4.60
2018-01-29T12:59:11.245Z,2.90
2018-01-29T13:04:22.535Z,3.60
2018-01-29T13:09:26.402Z,3.10
2018-01-29T13:14:29.358Z,3.30
2018-01-29T13:19:32.220Z,3.10
2018-01-29T13:24:35.783Z,3.17
2018-01-29T13:29:38.536Z,2.80
2018-01-29T13:34:42.053Z,2.50
2018-01-29T13:39:45.603Z,2.80
2018-01-29T13:44:48.429Z,6.50
2018-01-29T13:49:51.216Z,3.92
2018-01-29T13:54:54.004Z,2.37
2018-01-29T13:59:56.803Z,3.30
2018-01-29T14:04:59.597Z,2.00
2018-01-29T14:10:04.241Z,1.95
2018-01-29T14:15:07.100Z,2.20
2018-01-29T14:20:10.658Z,2.30
2018-01-29T14:25:13.468Z,2.50
2018-01-29T14:30:19.430Z,2.58
2018-01-29T14:35:22.756Z,2.45
